Colchester, VT

11:45 PM EST on November 22, 2014 (GMT -0500)
South Bay Circle, Malletts Bay | Change Station
CLOSE
Current Station
Personal Weather Station
Location: Colchester, VT
Elevation: 100 ft
Nearby Weather Stations

Elev 100 ft 44.54 °N, 73.21 °W | Updated 0 second ago

Overcast
Overcast
39.7 °F
Feels Like 40 °F
N
2.0
Wind Variable Wind from SSW
Gusts 6.0 mph

Today
High -- | Low -- °F
--% Chance of Precip.
Yesterday
High -- | Low -- °F
Precip. -- in
6:58 AM 4:19 PM
New Moon, 1% visible
Pressure 29.96 in
Visibility 10.0 miles
Clouds Overcast 2800 ft
Windchill 40 °F
Dew Point 22 °F
Humidity 49%
Rainfall 0.00 in
Snow Depth Not available.
UV 0.0 out of 12
Pollen .10 out of 12
Air Quality Not available.
Flu Activity Not available.
METAR KBTV 230354Z 19018G22KT 10SM OVC028 04/M06 A2994 RMK AO2 SLP143 T00441056

More Conditions Fewer Conditions

Pressure 29.96 in
Visibility 10.0 miles
Clouds Overcast 2800 ft
Windchill 40 °F
Dew Point 22 °F
Humidity 49%
Rainfall 0.00 in
Snow Depth Not available.
UV 0.0 out of 12
Pollen .10 out of 12
Air Quality Not available.
Flu Activity Not available.
METAR KBTV 230354Z 19018G22KT 10SM OVC028 04/M06 A2994 RMK AO2 SLP143 T00441056

More Conditions Fewer Conditions

10-Day Weather Forecast

Almanac

Astronomy

Nov. 22, 2014 Rise Set
Actual Time
Civil Twilight
Nautical Twilight
Astronomical Twilight
Moon
Length of Visible Light
Length of Day
Tomorrow will be .
, % of the Moon is Illuminated

Today's Extremes

State Highs State Lows

Community

WunderPhotos

Upload Photos

1,773,003 photos uploaded!

WunderBlogs® & News

Nearby

Air Quality

  Air Quality AQ Index Pollutant
Not available.

Snow Depth

Station Depth Elevation

Earthquake Activity

City Distance Mag. Time & Date
Minimum magnitude displayed is 2.5.

Coastal Water Temperatures

Place Temperature

Nearby Weather Stations